Time;durP1;ratioP1;P1;durP2;ratioP2;P2;SDS_P1;SDS_P2;PMS_P1;PMS_P2;Temp;Humidity;BMP_temperature;BMP_pressure;BME280_temperature;BME280_humidity;BME280_pressure;Samples;Min_cycle;Max_cycle;Signal;HPM_P1;HPM_P2
2022/01/13 00:01:50;;;;;;;120.05;14.13;;;;;;;-145.67;100.00;66521.78;4990973;28;20132;-72
2022/01/13 00:04:16;;;;;;;119.82;12.60;;;;;;;-145.67;100.00;66521.78;5011166;28;20049;-71
2022/01/13 00:06:44;;;;;;;161.30;14.57;;;;;;;-145.67;100.00;66521.78;4998219;28;20049;-70
2022/01/13 00:09:13;;;;;;;119.93;14.27;;;;;;;-145.67;100.00;66521.78;4997189;28;20071;-72
2022/01/13 00:11:40;;;;;;;178.60;14.05;;;;;;;-145.67;100.00;66521.78;4989240;28;20151;-71
2022/01/13 00:14:24;;;;;;;127.53;13.30;;;;;;;-145.67;100.00;66521.78;5006783;28;20066;-73
2022/01/13 00:20:19;;;;;;;121.78;12.02;;;;;;;-145.67;100.00;66521.78;4996053;28;20037;-72
2022/01/13 00:24:59;;;;;;;113.13;11.05;;;;;;;-145.67;100.00;66521.78;5010101;28;20033;-73
2022/01/13 00:27:26;;;;;;;101.32;10.57;;;;;;;-145.67;100.00;66521.78;4996737;28;20505;-72
2022/01/13 00:29:56;;;;;;;90.50;11.50;;;;;;;-145.67;100.00;66521.78;4996854;28;20041;-72
2022/01/13 00:32:24;;;;;;;96.32;11.43;;;;;;;-145.67;100.00;66521.78;4997325;28;20532;-72
2022/01/13 00:34:52;;;;;;;119.95;12.82;;;;;;;-145.67;100.00;66521.78;4996509;28;20135;-71
2022/01/13 00:37:18;;;;;;;111.82;12.63;;;;;;;-145.67;100.00;66521.78;5003212;28;20049;-72
2022/01/13 00:39:43;;;;;;;118.53;13.20;;;;;;;-145.67;100.00;66521.78;5012242;28;20100;-72
2022/01/13 00:42:09;;;;;;;120.95;13.60;;;;;;;-145.67;100.00;66521.78;4996706;28;20104;-72
2022/01/13 00:44:37;;;;;;;117.05;13.18;;;;;;;-145.67;100.00;66521.78;4995085;28;20034;-72
2022/01/13 00:47:05;;;;;;;99.68;12.18;;;;;;;-145.67;100.00;66521.78;5011592;28;20533;-72
2022/01/13 00:49:31;;;;;;;170.18;16.10;;;;;;;-145.67;100.00;66521.78;5010998;28;20076;-71
2022/01/13 00:51:56;;;;;;;136.63;15.48;;;;;;;-145.67;100.00;66521.78;5006948;28;20033;-72
2022/01/13 00:54:22;;;;;;;164.77;15.77;;;;;;;-145.67;100.00;66521.78;5000625;28;20053;-73
2022/01/13 00:56:51;;;;;;;192.38;17.02;;;;;;;-145.67;100.00;66521.78;4996304;28;20235;-71
2022/01/13 00:59:16;;;;;;;114.93;15.10;;;;;;;-145.67;100.00;66521.78;4991424;28;20481;-71
2022/01/13 01:01:53;;;;;;;116.50;15.18;;;;;;;-145.67;100.00;66521.78;5011424;28;20350;-70
2022/01/13 01:04:26;;;;;;;85.22;14.32;;;;;;;-145.67;100.00;66521.78;4994845;28;20072;-70
2022/01/13 01:07:11;;;;;;;108.35;16.27;;;;;;;-145.67;100.00;66521.78;4981994;28;20533;-70
2022/01/13 01:12:03;;;;;;;157.27;18.23;;;;;;;-145.67;100.00;66521.78;4966010;28;20042;-71
2022/01/13 01:14:32;;;;;;;155.90;18.33;;;;;;;-145.67;100.00;66521.78;4966072;28;20138;-71
2022/01/13 01:16:58;;;;;;;183.55;20.02;;;;;;;-145.67;100.00;66521.78;4950327;28;20053;-71
2022/01/13 01:19:28;;;;;;;112.75;17.60;;;;;;;-145.67;100.00;66521.78;4981750;28;20633;-71
2022/01/13 01:27:23;;;;;;;173.40;22.00;;;;;;;-145.67;100.00;66521.78;4982358;28;20217;-71
2022/01/13 01:32:53;;;;;;;101.88;17.10;;;;;;;-145.67;100.00;66521.78;4911168;29;20047;-71
2022/01/13 01:35:26;;;;;;;215.13;23.27;;;;;;;-145.67;100.00;66521.78;4910458;29;20043;-71
2022/01/13 01:37:52;;;;;;;128.32;21.90;;;;;;;-145.67;100.00;66521.78;4951408;28;20056;-71
2022/01/13 01:40:20;;;;;;;170.13;22.15;;;;;;;-145.67;100.00;66521.78;5004831;28;20136;-71
2022/01/13 01:42:46;;;;;;;219.25;24.10;;;;;;;-145.67;100.00;66521.78;4995536;28;20055;-71
2022/01/13 01:45:12;;;;;;;183.82;21.83;;;;;;;-145.67;100.00;66521.78;4990235;28;20076;-71
2022/01/13 01:47:38;;;;;;;177.75;20.48;;;;;;;-145.67;100.00;66521.78;4995478;28;20659;-70
2022/01/13 01:50:17;;;;;;;142.80;20.60;;;;;;;-145.67;100.00;66521.78;5010070;28;20137;-70
2022/01/13 01:52:47;;;;;;;95.35;18.17;;;;;;;-145.67;100.00;66521.78;5000482;28;20037;-70
2022/01/13 01:55:14;;;;;;;132.52;20.45;;;;;;;-145.67;100.00;66521.78;5003653;28;20045;-71
2022/01/13 01:57:40;;;;;;;210.88;22.25;;;;;;;-145.67;100.00;66521.78;4995312;28;20034;-70
2022/01/13 02:00:09;;;;;;;213.38;23.27;;;;;;;-145.67;100.00;66521.78;5001188;28;20048;-70
2022/01/13 02:02:36;;;;;;;156.05;20.58;;;;;;;-145.67;100.00;66521.78;4995254;28;20442;-70
2022/01/13 02:05:05;;;;;;;182.30;23.20;;;;;;;-145.67;100.00;66521.78;4995982;28;20044;-70
2022/01/13 02:07:31;;;;;;;195.32;23.50;;;;;;;-145.67;100.00;66521.78;4995051;28;20124;-71
2022/01/13 02:09:57;;;;;;;240.95;22.75;;;;;;;-145.67;100.00;66521.78;4995475;28;20090;-70
2022/01/13 02:12:35;;;;;;;193.85;23.05;;;;;;;-145.67;100.00;66521.78;5010252;28;20073;-69
2022/01/13 02:17:46;;;;;;;171.88;22.90;;;;;;;;;;5064845;27;20408;-72
2022/01/13 02:20:18;;;;;;;165.90;22.98;;;;;;;;;;5096574;28;20036;-69
2022/01/13 02:22:44;;;;;;;226.18;26.10;;;;;;;;;;5064776;28;20024;-71
2022/01/13 02:25:15;;;;;;;146.38;20.13;;;;;;;;;;5064865;28;20101;-70
2022/01/13 02:27:41;;;;;;;165.43;20.38;;;;;;;;;;5064461;28;22610;-70
2022/01/13 02:30:06;;;;;;;188.82;21.58;;;;;;;;;;5063825;28;20582;-71
2022/01/13 02:32:32;;;;;;;207.75;21.17;;;;;;;;;;5064688;28;20119;-70
2022/01/13 02:34:57;;;;;;;200.75;20.38;;;;;;;;;;5061981;28;20031;-70
2022/01/13 02:37:22;;;;;;;136.07;19.23;;;;;;;;;;5097192;28;20218;-72
2022/01/13 02:39:48;;;;;;;197.48;22.98;;;;;;;;;;5063791;28;20020;-71
2022/01/13 02:42:14;;;;;;;279.67;25.98;;;;;;;;;;5081988;28;20379;-70
2022/01/13 02:44:50;;;;;;;265.75;23.83;;;;;;;;;;5063869;28;20035;-70
2022/01/13 02:50:08;;;;;;;;;;;;;;;;;;5040673;28;20108;-71
2022/01/13 02:52:35;;;;;;;190.60;18.38;;;;;;;;;;5064592;28;19957;-72
2022/01/13 02:55:03;;;;;;;128.68;17.27;;;;;;;;;;5064102;28;20580;-72
2022/01/13 02:57:29;;;;;;;214.10;20.73;;;;;;;;;;5064192;28;20119;-72
2022/01/13 02:59:55;;;;;;;171.43;20.90;;;;;;;;;;5064102;28;20024;-72
2022/01/13 03:02:30;;;;;;;215.43;20.73;;;;;;;;;;5067827;28;20508;-72
2022/01/13 03:04:56;;;;;;;144.77;19.77;;;;;;;;;;5064198;28;20037;-72
2022/01/13 03:07:22;;;;;;;287.30;23.02;;;;;;;;;;5064190;28;20063;-72
2022/01/13 03:09:47;;;;;;;281.35;23.13;;;;;;;;;;5058497;28;20032;-72
2022/01/13 03:12:13;;;;;;;272.02;24.90;;;;;;;;;;5063446;28;20032;-71
2022/01/13 03:14:41;;;;;;;264.30;24.83;;;;;;;;;;5064104;28;20040;-72
2022/01/13 03:17:06;;;;;;;247.88;23.42;;;;;;;;;;5063282;28;20087;-71
2022/01/13 03:19:32;;;;;;;195.32;19.90;;;;;;;;;;5063817;28;20273;-70
2022/01/13 03:22:00;;;;;;;207.25;19.98;;;;;;;;;;5062114;28;20104;-71
2022/01/13 03:24:26;;;;;;;266.52;22.42;;;;;;;;;;5063435;28;20028;-72
2022/01/13 03:26:53;;;;;;;302.40;23.63;;;;;;;;;;5040975;28;20093;-72
2022/01/13 03:29:21;;;;;;;114.97;16.20;;;;;;;;;;5065127;28;20093;-71
2022/01/13 03:31:49;;;;;;;172.95;18.88;;;;;;;;;;5054773;28;20488;-71
2022/01/13 03:34:17;;;;;;;238.45;23.23;;;;;;;;;;5050407;28;20016;-72
2022/01/13 03:36:45;;;;;;;210.52;21.85;;;;;;;;;;5049911;28;20020;-72
2022/01/13 03:39:12;;;;;;;249.43;22.85;;;;;;;;;;5049451;28;20024;-72
2022/01/13 03:41:38;;;;;;;218.18;21.95;;;;;;;;;;5049402;28;20051;-71
2022/01/13 03:44:07;;;;;;;167.65;20.38;;;;;;;;;;5049588;28;20044;-72
2022/01/13 03:46:36;;;;;;;233.98;21.25;;;;;;;;;;5050720;28;20093;-72
2022/01/13 03:49:02;;;;;;;113.63;18.05;;;;;;;;;;5048446;28;20075;-71
2022/01/13 03:51:54;;;;;;;283.00;23.77;;;;;;;;;;5033800;28;20324;-71
2022/01/13 03:54:32;;;;;;;215.55;21.65;;;;;;;;;;5049732;28;20071;-71
2022/01/13 03:57:00;;;;;;;326.13;23.95;;;;;;;;;;5049654;28;20051;-71
2022/01/13 03:59:35;;;;;;;227.48;20.77;;;;;;;;;;5065494;28;20077;-72
2022/01/13 04:02:07;;;;;;;243.40;21.85;;;;;;;;;;5053110;28;20029;-71
2022/01/13 04:04:44;;;;;;;310.60;24.85;;;;;;;;;;5050344;28;20051;-72
2022/01/13 04:07:12;;;;;;;248.80;21.90;;;;;;;;;;5043857;28;20031;-71
2022/01/13 04:09:41;;;;;;;184.40;20.60;;;;;;;;;;5049427;28;20684;-72
2022/01/13 04:12:10;;;;;;;296.55;23.10;;;;;;;;;;5049397;28;20031;-72
2022/01/13 04:17:08;;;;;;;216.45;21.55;;;;;;;;;;5049632;28;20083;-72
2022/01/13 04:19:33;;;;;;;237.65;20.65;;;;;;;;;;5048762;28;20028;-72
2022/01/13 04:22:04;;;;;;;145.80;17.42;;;;;;;;;;5049246;28;20047;-72
2022/01/13 04:24:29;;;;;;;243.02;22.23;;;;;;;;;;5047446;28;20176;-72
2022/01/13 04:26:56;;;;;;;210.77;21.63;;;;;;;;;;5043430;28;20520;-70
2022/01/13 04:29:32;;;;;;;147.38;18.02;;;;;;;;;;5031832;28;20634;-73
2022/01/13 04:31:57;;;;;;;131.48;17.55;;;;;;;;;;5081285;28;20541;-72
2022/01/13 04:34:23;;;;;;;218.00;19.77;;;;;;;;;;5048829;28;20044;-73
2022/01/13 04:36:48;;;;;;;159.27;20.08;;;;;;;;;;5047830;28;20089;-69
2022/01/13 04:39:14;;;;;;;174.77;18.00;;;;;;;;;;5047564;28;20063;-71
2022/01/13 04:41:45;;;;;;;190.77;18.00;;;;;;;;;;5048821;28;20090;-73
2022/01/13 04:44:12;;;;;;;176.40;16.60;;;;;;;;;;5047409;28;20170;-71
2022/01/13 04:46:38;;;;;;;192.57;17.77;;;;;;;;;;5048708;28;20066;-72
2022/01/13 04:49:04;;;;;;;160.27;16.60;;;;;;;;;;5048750;28;20028;-71
2022/01/13 04:51:32;;;;;;;218.75;20.75;;;;;;;;;;5080975;28;20499;-71
2022/01/13 04:53:57;;;;;;;239.70;21.27;;;;;;;;;;5048454;28;20032;-71
2022/01/13 04:56:37;;;;;;;264.80;24.13;;;;;;;;;;5043206;28;20036;-71
2022/01/13 04:59:03;;;;;;;174.73;17.05;;;;;;;;;;5030265;28;20028;-71
2022/01/13 05:01:28;;;;;;;201.98;17.45;;;;;;;;;;5081434;28;20738;-71
2022/01/13 05:03:54;;;;;;;169.77;17.33;;;;;;;;;;5032041;28;20029;-71
2022/01/13 05:06:22;;;;;;;132.82;16.65;;;;;;;;;;5079204;28;20028;-72
2022/01/13 05:08:48;;;;;;;209.57;19.83;;;;;;;;;;5048732;28;20048;-73
2022/01/13 05:11:14;;;;;;;207.48;20.17;;;;;;;;;;5049168;28;20032;-72
2022/01/13 05:13:39;;;;;;;258.23;21.60;;;;;;;;;;5048947;28;20043;-72
2022/01/13 05:16:07;;;;;;;212.13;19.30;;;;;;;;;;5043712;28;20088;-72
2022/01/13 05:18:54;;;;;;;192.95;21.40;;;;;;;;;;5048106;28;20445;-71
2022/01/13 05:24:06;;;;;;;176.75;19.30;;;;;;;;;;5032459;28;20397;-72
2022/01/13 05:26:32;;;;;;;167.18;17.80;;;;;;;;;;5047937;28;20036;-72
2022/01/13 05:28:57;;;;;;;237.98;22.13;;;;;;;;;;5080078;28;20020;-70
2022/01/13 05:31:23;;;;;;;176.68;20.27;;;;;;;;;;5048606;28;20036;-70
2022/01/13 05:33:48;;;;;;;214.68;20.33;;;;;;;;;;5047357;28;20028;-71
2022/01/13 05:36:16;;;;;;;253.27;23.83;;;;;;;;;;5048028;28;20033;-71
2022/01/13 05:38:50;;;;;;;203.40;24.17;;;;;;;;;;5030162;28;20042;-72
2022/01/13 05:41:18;;;;;;;203.52;24.40;;;;;;;;;;5063207;28;20090;-72
2022/01/13 05:43:43;;;;;;;215.90;22.90;;;;;;;;;;5046072;28;20024;-71
2022/01/13 05:46:08;;;;;;;261.38;25.83;;;;;;;;;;5048072;28;20472;-72
2022/01/13 05:48:34;;;;;;;243.27;25.92;;;;;;;;;;5062323;28;20024;-71
2022/01/13 05:51:01;;;;;;;171.65;21.20;;;;;;;;;;5047603;28;20529;-71
2022/01/13 05:53:29;;;;;;;118.97;20.00;;;;;;;;;;5047098;28;20115;-71
2022/01/13 05:55:55;;;;;;;193.77;23.75;;;;;;;;;;5048257;28;20028;-71
2022/01/13 05:58:21;;;;;;;312.38;28.73;;;;;;;;;;5048716;28;20029;-71
2022/01/13 06:00:47;;;;;;;248.73;27.20;;;;;;;;;;5047066;28;20032;-71
2022/01/13 06:03:13;;;;;;;200.32;26.83;;;;;;;;;;5028686;28;20047;-71
2022/01/13 06:05:38;;;;;;;160.32;23.40;;;;;;;;;;5046992;28;20024;-70
2022/01/13 06:08:04;;;;;;;226.30;26.30;;;;;;;;;;5047298;28;20672;-72
2022/01/13 06:10:34;;;;;;;258.92;26.25;;;;;;;;;;5041786;28;20031;-72
2022/01/13 06:12:59;;;;;;;211.30;24.13;;;;;;;;;;5079856;28;20028;-72
2022/01/13 06:15:27;;;;;;;231.18;23.13;;;;;;;;;;5030718;28;20747;-72
2022/01/13 06:17:55;;;;;;;241.65;25.27;;;;;;;;;;5046091;28;20665;-72
2022/01/13 06:20:23;;;;;;;227.18;25.23;;;;;;;;;;5041253;28;20052;-72
2022/01/13 06:22:51;;;;;;;159.43;21.13;;;;;;;;;;5047014;28;20403;-72
2022/01/13 06:25:17;;;;;;;156.75;21.45;;;;;;;;;;5047106;28;20322;-73
2022/01/13 06:27:43;;;;;;;223.52;23.08;;;;;;;;;;5026020;28;20104;-72
2022/01/13 06:30:11;;;;;;;226.85;23.55;;;;;;;;;;5047005;28;20488;-72
2022/01/13 06:32:38;;;;;;;152.73;20.40;;;;;;;;;;5047480;28;20163;-72
2022/01/13 06:35:03;;;;;;;254.30;23.55;;;;;;;;;;5050699;28;20037;-72
2022/01/13 06:37:31;;;;;;;209.52;23.92;;;;;;;;;;5046446;28;20517;-72
2022/01/13 06:39:56;;;;;;;252.63;28.00;;;;;;;;;;5045436;28;20041;-72
2022/01/13 06:42:21;;;;;;;222.60;25.83;;;;;;;;;;5045592;28;20089;-72
2022/01/13 06:44:47;;;;;;;185.38;20.85;;;;;;;;;;5047118;28;20025;-72
2022/01/13 06:47:15;;;;;;;180.82;22.15;;;;;;;;;;5047203;28;21912;-72
2022/01/13 06:49:40;;;;;;;183.07;21.77;;;;;;;;;;5049564;28;20043;-71
2022/01/13 06:52:06;;;;;;;170.23;22.05;;;;;;;;;;5079059;28;20028;-71
2022/01/13 06:54:32;;;;;;;224.05;25.10;;;;;;;;;;5047034;28;20120;-70
2022/01/13 06:56:58;;;;;;;238.52;27.80;;;;;;;;;;5046416;28;20376;-72
2022/01/13 06:59:24;;;;;;;237.38;25.98;;;;;;;;;;5046765;28;20826;-71
2022/01/13 07:01:49;;;;;;;239.88;27.02;;;;;;;;;;5047535;28;20379;-71
2022/01/13 07:04:15;;;;;;;197.70;25.02;;;;;;;;;;5049570;28;20036;-71
2022/01/13 07:06:45;;;;;;;227.20;24.58;;;;;;;;;;5050513;28;20506;-71
2022/01/13 07:09:11;;;;;;;237.57;23.75;;;;;;;;;;5050415;28;20029;-71
2022/01/13 07:11:37;;;;;;;294.88;28.33;;;;;;;;;;5050955;28;20039;-71
2022/01/13 07:14:02;;;;;;;194.23;23.38;;;;;;;;;;5050078;28;20036;-71
2022/01/13 07:16:31;;;;;;;226.88;24.73;;;;;;;;;;5050555;28;20477;-70
2022/01/13 07:18:57;;;;;;;272.00;26.35;;;;;;;;;;5049773;28;20116;-71
2022/01/13 07:21:27;;;;;;;292.88;27.27;;;;;;;;;;5050086;28;20074;-72
2022/01/13 07:23:55;;;;;;;286.30;26.80;;;;;;;;;;5049959;28;20115;-71
2022/01/13 07:26:21;;;;;;;282.65;25.13;;;;;;;;;;5049836;28;20038;-72
2022/01/13 07:28:46;;;;;;;255.25;25.92;;;;;;;;;;5049633;28;20033;-71
2022/01/13 07:31:14;;;;;;;157.20;20.45;;;;;;;;;;5081844;28;20059;-71
2022/01/13 07:33:40;;;;;;;130.07;19.40;;;;;;;;;;5049023;28;20480;-72
2022/01/13 07:36:06;;;;;;;234.80;25.90;;;;;;;;;;5049568;28;20076;-70
2022/01/13 07:38:34;;;;;;;196.90;25.63;;;;;;;;;;5050167;28;20119;-71
2022/01/13 07:41:00;;;;;;;195.00;24.27;;;;;;;;;;5049807;28;20788;-71
2022/01/13 07:43:26;;;;;;;200.25;22.85;;;;;;;;;;5045063;28;20020;-70
2022/01/13 07:45:52;;;;;;;265.85;27.48;;;;;;;;;;5050292;28;20064;-70
2022/01/13 07:48:21;;;;;;;231.15;25.25;;;;;;;;;;5081091;28;20494;-70
2022/01/13 07:50:46;;;;;;;175.55;24.95;;;;;;;;;;5050084;28;20044;-70
2022/01/13 07:53:12;;;;;;;214.88;25.58;;;;;;;;;;5049722;28;20052;-70
2022/01/13 07:55:38;;;;;;;219.23;24.95;;;;;;;;;;5049620;28;20036;-70
2022/01/13 07:58:03;;;;;;;207.55;26.27;;;;;;;;;;5049595;28;21959;-70
2022/01/13 08:00:29;;;;;;;217.73;29.48;;;;;;;;;;5047883;28;20113;-70
2022/01/13 08:02:54;;;;;;;210.55;29.00;;;;;;;;;;5063628;28;20479;-71
2022/01/13 08:05:19;;;;;;;182.60;28.45;;;;;;;;;;5049173;28;20104;-72
2022/01/13 08:07:47;;;;;;;192.48;31.40;;;;;;;;;;5048884;28;20047;-71
2022/01/13 08:10:13;;;;;;;132.13;27.95;;;;;;;;;;5081061;28;20036;-71
2022/01/13 08:12:42;;;;;;;163.50;29.98;;;;;;;;;;5049359;28;20033;-71
2022/01/13 08:15:12;;;;;;;211.45;32.13;;;;;;;;;;5049043;28;20260;-71
2022/01/13 08:20:24;;;;;;;221.73;32.38;;;;;;;;;;5048645;28;20557;-70
2022/01/13 08:22:50;;;;;;;264.58;34.30;;;;;;;;;;5044003;28;20044;-70
2022/01/13 08:25:17;;;;;;;230.75;34.85;;;;;;;;;;5048620;28;20037;-70
2022/01/13 08:27:43;;;;;;;220.70;33.80;;;;;;;;;;5049546;28;20162;-71
2022/01/13 08:30:11;;;;;;;174.88;35.35;;;;;;;;;;5048498;28;20041;-71
2022/01/13 08:32:39;;;;;;;177.38;37.47;;;;;;;;;;5048833;28;20067;-70
2022/01/13 08:35:05;;;;;;;173.70;39.72;;;;;;;;;;5048378;28;20467;-70
2022/01/13 08:37:32;;;;;;;164.80;39.78;;;;;;;;;;5049358;28;20234;-69
2022/01/13 08:39:58;;;;;;;156.32;39.58;;;;;;;;;;5049064;28;20040;-70
2022/01/13 08:42:24;;;;;;;203.65;43.38;;;;;;;;;;5047201;28;20032;-71
2022/01/13 08:44:49;;;;;;;214.50;42.63;;;;;;;;;;5048757;28;20032;-71
2022/01/13 08:47:15;;;;;;;221.18;41.55;;;;;;;;;;5048141;28;20086;-70
2022/01/13 08:49:41;;;;;;;244.05;42.10;;;;;;;;;;5047792;28;20333;-71
2022/01/13 08:52:09;;;;;;;207.55;39.30;;;;;;;;;;5048377;28;20040;-71
2022/01/13 08:54:34;;;;;;;170.73;36.75;;;;;;;;;;5048463;28;20036;-71
2022/01/13 08:57:00;;;;;;;217.13;36.88;;;;;;;;;;5031908;28;20040;-71
2022/01/13 08:59:26;;;;;;;229.68;37.60;;;;;;;;;;5047887;28;20070;-71
2022/01/13 09:01:53;;;;;;;209.50;39.78;;;;;;;;;;5047975;28;20028;-71
2022/01/13 09:04:18;;;;;;;178.60;38.45;;;;;;;;;;5047328;28;20036;-71
2022/01/13 09:06:44;;;;;;;181.90;40.30;;;;;;;;;;5048166;28;20055;-71
2022/01/13 09:09:09;;;;;;;188.23;39.60;;;;;;;;;;5047814;28;20043;-71
2022/01/13 09:11:37;;;;;;;175.68;38.95;;;;;;;;;;5080955;28;20219;-70
2022/01/13 09:14:03;;;;;;;190.30;37.78;;;;;;;;;;5041945;28;20037;-71
2022/01/13 09:16:33;;;;;;;176.43;37.03;;;;;;;;;;5047828;28;20053;-71
2022/01/13 09:19:07;;;;;;;158.73;37.67;;;;;;;;;;5047178;28;20779;-70
2022/01/13 09:21:33;;;;;;;158.82;39.65;;;;;;;;;;5031061;28;20035;-71
2022/01/13 09:23:58;;;;;;;140.85;37.20;;;;;;;;;;5079868;28;20396;-71
2022/01/13 09:26:24;;;;;;;163.77;38.17;;;;;;;;;;5046258;28;20307;-71
2022/01/13 09:28:52;;;;;;;163.57;38.50;;;;;;;;;;5047393;28;20059;-70
2022/01/13 09:31:18;;;;;;;167.68;34.90;;;;;;;;;;5045392;28;20055;-71
2022/01/13 09:33:43;;;;;;;171.25;34.33;;;;;;;;;;5047008;28;20055;-72
2022/01/13 09:36:15;;;;;;;168.07;35.15;;;;;;;;;;5045554;28;21021;-71
2022/01/13 09:38:43;;;;;;;170.45;33.55;;;;;;;;;;5047443;28;20392;-71
2022/01/13 09:41:08;;;;;;;146.95;31.27;;;;;;;;;;5047637;28;20226;-70
2022/01/13 09:43:33;;;;;;;166.23;31.40;;;;;;;;;;5042238;28;20020;-71
2022/01/13 09:45:59;;;;;;;126.18;29.23;;;;;;;;;;5045091;28;20044;-73
2022/01/13 09:48:26;;;;;;;137.57;32.72;;;;;;;;;;5047606;28;20351;-74
2022/01/13 09:50:54;;;;;;;123.97;33.20;;;;;;;;;;5047537;28;20036;-71
2022/01/13 09:53:20;;;;;;;140.00;33.33;;;;;;;;;;5031408;28;20028;-72
2022/01/13 09:55:46;;;;;;;154.23;32.33;;;;;;;;;;5047927;28;20472;-70
2022/01/13 09:58:11;;;;;;;173.73;33.38;;;;;;;;;;5045484;28;20024;-70
2022/01/13 10:00:38;;;;;;;144.90;32.47;;;;;;;;;;5047214;28;20025;-70
2022/01/13 10:03:12;;;;;;;147.13;35.00;;;;;;;;;;5045406;28;20087;-71
2022/01/13 10:05:45;;;;;;;135.70;34.85;;;;;;;;;;5025600;28;20523;-70
2022/01/13 10:08:13;;;;;;;152.15;36.55;;;;;;;;;;5047489;28;20029;-70
2022/01/13 10:10:39;;;;;;;162.80;39.33;;;;;;;;;;5045664;28;20039;-71
2022/01/13 10:13:09;;;;;;;146.55;36.55;;;;;;;;;;5040839;28;20473;-70
2022/01/13 10:18:40;;;;;;;162.85;37.88;;;;;;;;;;5046646;28;20050;-71
2022/01/13 10:21:08;;;;;;;175.63;37.10;;;;;;;;;;5079478;28;20032;-71
2022/01/13 10:23:33;;;;;;;197.07;34.78;;;;;;;;;;5046662;28;20447;-71
2022/01/13 10:26:12;;;;;;;208.25;32.35;;;;;;;;;;5047089;28;20086;-71
2022/01/13 10:28:50;;;;;;;193.48;33.28;;;;;;;;;;5041738;28;20028;-71
2022/01/13 10:31:15;;;;;;;207.13;33.50;;;;;;;;;;5047475;28;20021;-71
2022/01/13 10:33:41;;;;;;;186.15;36.58;;;;;;;;;;5046948;28;20282;-70
2022/01/13 10:36:09;;;;;;;186.32;33.97;;;;;;;;;;5047333;28;20025;-71
2022/01/13 10:38:54;;;;;;;214.45;35.55;;;;;;;;;;5036943;28;20374;-71
2022/01/13 10:42:13;;;;;;;242.05;34.30;;;;;;;;;;5051045;28;20062;-71
2022/01/13 10:44:22;;;;;;;166.23;35.33;;;;;;;;;;5048350;28;20044;-72
2022/01/13 10:47:01;;;;;;;273.48;35.97;;;;;;;;;;5066514;28;20653;-71
2022/01/13 10:49:49;;;;;;;225.23;33.33;;;;;;;;;;5050339;28;20059;-71
2022/01/13 10:52:15;;;;;;;216.10;33.38;;;;;;;;;;5051273;28;20043;-71
2022/01/13 10:54:40;;;;;;;228.80;31.42;;;;;;;;;;5067444;28;20124;-72
2022/01/13 10:57:22;;;;;;;351.25;35.85;;;;;;;;;;5050368;28;20347;-71
2022/01/13 10:59:48;;;;;;;200.05;30.83;;;;;;;;;;5050857;28;20544;-70
2022/01/13 11:02:13;;;;;;;240.38;34.35;;;;;;;;;;5049939;28;20032;-71
2022/01/13 11:04:39;;;;;;;142.60;33.15;;;;;;;;;;5050900;28;20026;-71
2022/01/13 11:07:18;;;;;;;147.80;35.90;;;;;;;;;;5045195;28;20571;-71
2022/01/13 11:09:54;;;;;;;141.18;36.63;;;;;;;;;;5050894;28;20040;-71
2022/01/13 11:12:35;;;;;;;137.25;36.80;;;;;;;;;;5082341;28;20032;-71
2022/01/13 11:15:05;;;;;;;197.57;36.45;;;;;;;;;;5050100;28;20031;-71
2022/01/13 11:17:33;;;;;;;128.57;30.80;;;;;;;;;;5049514;28;20397;-71
2022/01/13 11:19:59;;;;;;;181.27;32.92;;;;;;;;;;5044412;28;20033;-71
2022/01/13 11:22:24;;;;;;;169.00;37.45;;;;;;;;;;5050474;28;20131;-71
2022/01/13 11:24:50;;;;;;;131.13;36.88;;;;;;;;;;5050553;28;20132;-71
2022/01/13 11:27:20;;;;;;;141.15;36.72;;;;;;;;;;5032408;28;20273;-73
2022/01/13 11:29:48;;;;;;;123.00;35.42;;;;;;;;;;5050072;28;20120;-73
2022/01/13 11:32:17;;;;;;;124.10;32.28;;;;;;;;;;5050748;28;20032;-70
2022/01/13 11:34:43;;;;;;;147.77;33.15;;;;;;;;;;5049312;28;20044;-70
2022/01/13 11:37:08;;;;;;;128.23;30.65;;;;;;;;;;5050420;28;20248;-71
2022/01/13 11:39:37;;;;;;;120.07;32.20;;;;;;;;;;5049457;28;20036;-70
2022/01/13 11:42:04;;;;;;;120.70;34.00;;;;;;;;;;5049802;28;20030;-70
2022/01/13 11:44:30;;;;;;;126.93;36.90;;;;;;;;;;5049494;28;20470;-72
2022/01/13 11:46:55;;;;;;;122.72;35.83;;;;;;;;;;5049789;28;20078;-70
2022/01/13 11:49:26;;;;;;;111.25;36.47;;;;;;;;;;5048458;28;20135;-71
2022/01/13 11:52:00;;;;;;;132.27;37.53;;;;;;;;;;5081967;28;20139;-71
2022/01/13 11:54:31;;;;;;;127.00;36.15;;;;;;;;;;5049677;28;20036;-73
2022/01/13 11:56:58;;;;;;;;;;;;;;;;;;5050873;28;20085;-70
2022/01/13 11:59:24;;;;;;;150.32;31.15;;;;;;;;;;5049531;28;19920;-70
2022/01/13 12:01:49;;;;;;;111.25;30.35;;;;;;;;;;5064585;28;20128;-70
2022/01/13 12:04:23;;;;;;;103.88;31.17;;;;;;;;;;5052539;28;20131;-72
2022/01/13 12:06:49;;;;;;;107.10;29.60;;;;;;;;;;5082214;28;20055;-71
2022/01/13 12:09:21;;;;;;;117.90;33.28;;;;;;;;;;5049935;28;20032;-71
2022/01/13 12:11:51;;;;;;;139.82;37.55;;;;;;;;;;5049788;28;20037;-70
2022/01/13 12:14:22;;;;;;;130.70;35.80;;;;;;;;;;5048202;28;20033;-71
2022/01/13 12:16:55;;;;;;;137.80;36.47;;;;;;;;;;5048915;28;20046;-70
2022/01/13 12:19:31;;;;;;;152.18;38.70;;;;;;;;;;5043591;28;20028;-71
2022/01/13 12:22:03;;;;;;;165.07;31.48;;;;;;;;;;5048819;28;20111;-71
2022/01/13 12:24:43;;;;;;;160.00;32.30;;;;;;;;;;5048833;28;20056;-70
2022/01/13 12:27:09;;;;;;;144.90;29.45;;;;;;;;;;5049420;28;20032;-74
2022/01/13 12:29:42;;;;;;;149.82;29.80;;;;;;;;;;5044028;28;20032;-71
2022/01/13 12:32:08;;;;;;;166.82;26.77;;;;;;;;;;5047964;28;20029;-70
2022/01/13 12:34:34;;;;;;;103.55;25.02;;;;;;;;;;5049036;28;20032;-71
2022/01/13 12:37:19;;;;;;;119.80;26.48;;;;;;;;;;5049192;28;20029;-70
2022/01/13 12:39:55;;;;;;;143.15;27.90;;;;;;;;;;5046744;28;20021;-71
2022/01/13 12:42:28;;;;;;;110.18;25.85;;;;;;;;;;5064070;28;20074;-71
2022/01/13 12:47:39;;;;;;;143.60;24.20;;;;;;;;;;5037133;28;20054;-71
2022/01/13 12:50:14;;;;;;;175.65;27.02;;;;;;;;;;5043345;28;20028;-73
2022/01/13 12:52:40;;;;;;;142.75;24.42;;;;;;;;;;5048535;28;20028;-72
2022/01/13 12:55:08;;;;;;;149.73;23.15;;;;;;;;;;5048478;28;20107;-72
2022/01/13 12:57:34;;;;;;;151.23;24.20;;;;;;;;;;5048907;28;20028;-72
2022/01/13 12:59:59;;;;;;;170.38;25.25;;;;;;;;;;5048063;28;20066;-71
2022/01/13 13:02:25;;;;;;;222.55;26.60;;;;;;;;;;5080148;28;20028;-72
2022/01/13 13:04:50;;;;;;;132.57;23.42;;;;;;;;;;5048431;28;20040;-72
2022/01/13 13:07:16;;;;;;;153.05;22.65;;;;;;;;;;5047669;28;20470;-72
2022/01/13 13:09:41;;;;;;;213.82;27.00;;;;;;;;;;5047194;28;20079;-72
2022/01/13 13:12:11;;;;;;;278.70;29.20;;;;;;;;;;5047623;28;20036;-72
2022/01/13 13:17:33;;;;;;;132.45;21.83;;;;;;;;;;5048008;28;20048;-73
2022/01/13 13:19:59;;;;;;;158.65;23.92;;;;;;;;;;5079857;28;20035;-72
2022/01/13 13:22:25;;;;;;;163.80;22.85;;;;;;;;;;5026416;28;20029;-72
2022/01/13 13:24:51;;;;;;;213.25;24.55;;;;;;;;;;5047996;28;20209;-72
2022/01/13 13:27:26;;;;;;;197.35;23.77;;;;;;;;;;5042859;28;20081;-72
2022/01/13 13:29:54;;;;;;;214.65;25.08;;;;;;;;;;5047135;28;22118;-72
2022/01/13 13:32:21;;;;;;;214.30;24.40;;;;;;;;;;5048069;28;20040;-70
2022/01/13 13:34:47;;;;;;;197.07;23.60;;;;;;;;;;5035358;28;20036;-71
2022/01/13 13:37:12;;;;;;;272.50;28.17;;;;;;;;;;5047798;28;20301;-70
2022/01/13 13:39:38;;;;;;;284.35;28.23;;;;;;;;;;5048153;28;20054;-71
2022/01/13 13:42:03;;;;;;;231.55;24.20;;;;;;;;;;5047331;28;20033;-70
2022/01/13 13:44:31;;;;;;;182.23;23.98;;;;;;;;;;5048198;28;20119;-71
2022/01/13 13:46:58;;;;;;;253.75;25.40;;;;;;;;;;5048343;28;20072;-69
2022/01/13 13:49:24;;;;;;;254.73;24.88;;;;;;;;;;5047778;28;21950;-71
2022/01/13 13:51:59;;;;;;;154.98;22.92;;;;;;;;;;5047693;28;20028;-71
2022/01/13 13:54:27;;;;;;;213.02;23.65;;;;;;;;;;5046921;28;20063;-69
2022/01/13 13:57:08;;;;;;;170.02;22.95;;;;;;;;;;5047921;28;20085;-70
2022/01/13 13:59:40;;;;;;;216.68;26.35;;;;;;;;;;5047855;28;20036;-70
2022/01/13 14:02:29;;;;;;;166.55;23.50;;;;;;;;;;5047351;28;20032;-70
2022/01/13 14:04:55;;;;;;;219.88;24.80;;;;;;;;;;5051170;28;20132;-70
2022/01/13 14:07:31;;;;;;;156.00;22.67;;;;;;;;;;5046380;28;20116;-70
2022/01/13 14:10:02;;;;;;;194.35;22.25;;;;;;;;;;5047712;28;20291;-70
2022/01/13 14:12:28;;;;;;;179.40;22.23;;;;;;;;;;5064904;28;20472;-70
2022/01/13 14:14:54;;;;;;;250.90;25.60;;;;;;;;;;5051317;28;20036;-70